Ledyard, Iowa
Current Conditions -  °F | °C
As of 11:55 PM on Thursday 27 Nov 2014 (Local Time) from KFRM Reporting Station
Overcast Overcast  
Wind Chill: -8°   Ceiling: 9000
Heat Index: 10°   Visibility: 10mi
Dew Point:   Wind: 18mph
Humidity: 67%   Direction: 140°SE
Pressure: 30.13"   Gusts: NA
Location:  43.42°N, 94.16°W
Report Text: KFRM 280555Z AUTO 14016KT 10SM SCT060 OVC090 M12/M17 A3013 RMK AO1 11120 21180 57037
Loading
Personal Weather Stations






























Interactive Weather Map New forecast layout! Learn more

10-Day Weather Forecast

Advertisements
Track Severe Weather on mobile